Norwegian Star — C6FR3 — position and weather

sailwx.info

Track history (hours):
 
Tides and Currents Weather Stations Pressure Air Temp Water Temp Dewpoint Dewpoint Depression Visibility Wind Speed Wind Dir Waves Ship Positions

Norwegian Star

Operator: Norwegian Cruise Line

Last reported at 2019-Jul-21 20:45 UTC. Time now 2019-Jul-22 14:47 UTC.
Position N 41°19' E 018°53'.

Type: Passenger vessel. MMSI: 311082000.

Date/timePositionNaut miles runAvg speedWind from/ knotsBaromVisibWave heightAir tempDewpointWater temp
2019-Jul-21 20:45N 41°19' E 018°53'146 5.4
2019-Jul-20 17:53N 42°56' E 016°27'513.0
2019-Jul-20 17:30N 43°00' E 016°24'713.3
2019-Jul-20 17:00N 43°06' E 016°19'612.6
2019-Jul-20 16:30N 43°12' E 016°16'713.7
2019-Jul-20 16:00N 43°17' E 016°22'13 1.6
2019-Jul-20 08:00N 43°30' E 016°24'39 6.7 170 / 61019.0 5.4 28.0
2019-Jul-20 02:11N 43°34' E 015°31'317.6
2019-Jul-20 02:00N 43°35' E 015°27'917.6
2019-Jul-20 01:29N 43°40' E 015°15'817.7
2019-Jul-20 01:00N 43°44' E 015°05'917.6
2019-Jul-20 00:31N 43°48' E 014°54'917.7
2019-Jul-20 00:00N 43°52' E 014°43'1117.6
2019-Jul-19 23:21N 43°57' E 014°29'617.6
2019-Jul-19 23:01N 43°59' E 014°21'1117.7
2019-Jul-19 22:24N 44°04' E 014°07'717.1
2019-Jul-19 22:00N 44°08' E 014°00'1017.3
2019-Jul-19 21:27N 44°16' E 013°53'817.4
2019-Jul-19 21:00N 44°22' E 013°47'917.6
2019-Jul-19 20:30N 44°30' E 013°40'917.4
2019-Jul-19 20:00N 44°37' E 013°33'917.2
2019-Jul-19 19:30N 44°44' E 013°27'917.3
2019-Jul-19 19:00N 44°51' E 013°20'817.0
2019-Jul-19 18:31N 44°58' E 013°12'816.2
2019-Jul-19 18:00N 45°03' E 013°04'816.7
2019-Jul-19 17:31N 45°09' E 012°56'816.6
2019-Jul-19 17:01N 45°15' E 012°47'917.0
2019-Jul-19 16:31N 45°20' E 012°37'815.1
2019-Jul-19 16:00N 45°24' E 012°28'4 8.4
2019-Jul-19 15:30N 45°26' E 012°23'2 3.9
2019-Jul-19 15:00N 45°26' E 012°20'1 2.5
2019-Jul-19 14:30N 45°26' E 012°19'0 0.2
2019-Jul-19 13:59N 45°26' E 012°19'0 0.0
2019-Jul-19 13:29N 45°26' E 012°19'0 0.0
2019-Jul-19 12:59N 45°26' E 012°19'0 0.0
2019-Jul-19 12:29N 45°26' E 012°19'0 0.0
2019-Jul-19 11:59N 45°26' E 012°19'0 0.0
2019-Jul-19 11:29N 45°26' E 012°19'0 0.0
2019-Jul-19 10:59N 45°26' E 012°19'0 0.0
2019-Jul-19 10:29N 45°26' E 012°19'0 0.0
2019-Jul-19 09:59N 45°26' E 012°19'0 0.0
2019-Jul-19 09:29N 45°26' E 012°19'0 0.0
2019-Jul-19 08:59N 45°26' E 012°19'0 0.0
2019-Jul-19 08:29N 45°26' E 012°19'0 0.0
2019-Jul-19 07:59N 45°26' E 012°19'0 0.0
2019-Jul-19 07:29N 45°26' E 012°19'0 0.0
2019-Jul-19 06:59N 45°26' E 012°19'0 0.0
2019-Jul-19 06:29N 45°26' E 012°19'0 0.0
2019-Jul-19 05:59N 45°26' E 012°19'0 0.0
2019-Jul-19 05:29N 45°26' E 012°19'0 0.0
2019-Jul-19 04:59N 45°26' E 012°19'0 0.0
2019-Jul-19 04:29N 45°26' E 012°19'0 0.0
2019-Jul-19 03:59N 45°26' E 012°19'0 0.0
2019-Jul-19 03:29N 45°26' E 012°19'0 0.0
2019-Jul-19 02:59N 45°26' E 012°19'0 0.0
2019-Jul-19 02:29N 45°26' E 012°19'0 0.0
2019-Jul-19 01:59N 45°26' E 012°19'0 0.0
2019-Jul-19 01:29N 45°26' E 012°19'0 0.0
2019-Jul-19 00:59N 45°26' E 012°19'0 0.0
2019-Jul-19 00:29N 45°26' E 012°19'0 0.0
2019-Jul-18 23:59N 45°26' E 012°19'0 0.0
2019-Jul-18 23:29N 45°26' E 012°19'0 0.0
2019-Jul-18 22:59N 45°26' E 012°19'0 0.0
2019-Jul-18 22:29N 45°26' E 012°19'0 0.0
2019-Jul-18 21:59N 45°26' E 012°19'0 0.0
2019-Jul-18 21:29N 45°26' E 012°19'0 0.0
2019-Jul-18 20:59N 45°26' E 012°19'0 0.0
2019-Jul-18 20:29N 45°26' E 012°19'0 0.0
2019-Jul-18 19:59N 45°26' E 012°19'0 0.0
2019-Jul-18 19:29N 45°26' E 012°19'0 0.0
2019-Jul-18 18:59N 45°26' E 012°19'0 0.0
2019-Jul-18 18:29N 45°26' E 012°19'0 0.0
2019-Jul-18 17:59N 45°26' E 012°19'0 0.0
2019-Jul-18 17:29N 45°26' E 012°19'0 0.0
2019-Jul-18 16:59N 45°26' E 012°19'0 0.0
2019-Jul-18 16:29N 45°26' E 012°19'0 0.0
2019-Jul-18 15:59N 45°26' E 012°19'0 0.0
2019-Jul-18 15:29N 45°26' E 012°19'0 0.0
2019-Jul-18 14:59N 45°26' E 012°19'0 0.0
2019-Jul-18 14:29N 45°26' E 012°19'0 0.0
2019-Jul-18 13:59N 45°26' E 012°19'0 0.0
2019-Jul-18 13:29N 45°26' E 012°19'0 0.0
2019-Jul-18 12:59N 45°26' E 012°19'0 0.0
2019-Jul-18 12:29N 45°26' E 012°19'0 0.0
2019-Jul-18 11:59N 45°26' E 012°19'0 0.0
2019-Jul-18 11:26N 45°26' E 012°19'0 0.0
2019-Jul-18 10:59N 45°26' E 012°19'0 0.0
2019-Jul-18 10:29N 45°26' E 012°19'0 0.0
2019-Jul-18 09:59N 45°26' E 012°19'0 0.0
2019-Jul-18 09:29N 45°26' E 012°19'2 4.8
2019-Jul-18 09:00N 45°24' E 012°18'2247.3 020 / 101013.0 5.4 22.0
2019-Jul-18 08:59N 45°26' E 012°19'0 0.0
2019-Jul-18 08:29N 45°26' E 012°19'0 0.0
2019-Jul-18 07:59N 45°26' E 012°19'0 0.0
2019-Jul-18 07:29N 45°26' E 012°19'0 0.0
2019-Jul-18 06:59N 45°26' E 012°19'0 0.0
2019-Jul-18 06:29N 45°26' E 012°19'0 0.0
2019-Jul-18 05:59N 45°26' E 012°19'0 0.0
2019-Jul-18 05:29N 45°26' E 012°19'0 0.0
2019-Jul-18 04:59N 45°26' E 012°19'0 0.0
2019-Jul-18 04:29N 45°26' E 012°19'0 0.0
2019-Jul-18 03:59N 45°26' E 012°19'0 0.0
2019-Jul-18 03:29N 45°26' E 012°19'0 0.0
2019-Jul-18 02:59N 45°26' E 012°19'0 0.0
2019-Jul-18 02:29N 45°26' E 012°19'0 0.0
2019-Jul-18 01:59N 45°26' E 012°19'0 0.0
2019-Jul-18 01:26N 45°26' E 012°19'0 0.0
2019-Jul-18 00:59N 45°26' E 012°19'0 0.0
2019-Jul-18 00:29N 45°26' E 012°19'0 0.0
2019-Jul-17 23:59N 45°26' E 012°19'0 0.0
2019-Jul-17 23:29N 45°26' E 012°19'0 0.0
2019-Jul-17 22:59N 45°26' E 012°19'0 0.0
2019-Jul-17 22:29N 45°26' E 012°19'0 0.0
2019-Jul-17 21:59N 45°26' E 012°19'0 0.0
2019-Jul-17 21:29N 45°26' E 012°19'0 0.0
2019-Jul-17 20:59N 45°26' E 012°19'0 0.0
2019-Jul-17 20:29N 45°26' E 012°19'0 0.0
2019-Jul-17 19:59N 45°26' E 012°19'0 0.0
2019-Jul-17 19:29N 45°26' E 012°19'0 0.0
2019-Jul-17 18:59N 45°26' E 012°19'0 0.0
2019-Jul-17 18:29N 45°26' E 012°19'0 0.0
2019-Jul-17 17:59N 45°26' E 012°19'0 0.0
2019-Jul-17 17:29N 45°26' E 012°19'0 0.0
2019-Jul-17 16:59N 45°26' E 012°19'0 0.0
2019-Jul-17 16:29N 45°26' E 012°19'0 0.0
2019-Jul-17 15:59N 45°26' E 012°19'0 0.0
2019-Jul-17 15:29N 45°26' E 012°19'0 0.0
2019-Jul-17 14:59N 45°26' E 012°19'0 0.0
2019-Jul-17 14:29N 45°26' E 012°19'0 0.0
2019-Jul-17 13:59N 45°26' E 012°19'0 0.0
2019-Jul-17 13:29N 45°26' E 012°19'0 0.0
2019-Jul-17 12:59N 45°26' E 012°19'0 0.0
2019-Jul-17 12:29N 45°26' E 012°19'0 0.0
2019-Jul-17 11:56N 45°26' E 012°19'0 0.0
2019-Jul-17 11:29N 45°26' E 012°19'0 0.9
2019-Jul-17 11:01N 45°26' E 012°18'2 4.3
2019-Jul-17 10:31N 45°26' E 012°21'3 5.1
2019-Jul-17 10:01N 45°26' E 012°25'3 5.8
2019-Jul-17 09:31N 45°24' E 012°29'4 7.2
2019-Jul-17 09:01N 45°22' E 012°33'611.8
2019-Jul-17 08:31N 45°19' E 012°40'816.9
2019-Jul-17 08:01N 45°14' E 012°49'816.9
2019-Jul-17 07:31N 45°08' E 012°58'816.8
2019-Jul-17 07:01N 45°03' E 013°07'817.0
2019-Jul-17 06:31N 44°59' E 013°18'917.4
2019-Jul-17 06:01N 44°52' E 013°25'918.3
2019-Jul-17 05:31N 44°44' E 013°32'918.7
2019-Jul-17 05:01N 44°36' E 013°39'2138.9
2019-Jul-17 05:00N 44°36' E 013°36'1021.2 010 / 3 25.0
2019-Jul-17 04:31N 44°29' E 013°46'1020.3
2019-Jul-17 04:01N 44°20' E 013°54'1122.5
2019-Jul-17 03:30N 44°11' E 014°03'1122.5
2019-Jul-17 03:01N 44°02' E 014°12'1122.4
2019-Jul-17 02:31N 43°53' E 014°21'1122.5
2019-Jul-17 02:01N 43°44' E 014°31'1122.4
2019-Jul-17 01:31N 43°36' E 014°41'  
2019-Jul-14 13:37N 37°12' E 024°49'323.9
2019-Jul-14 13:31N 37°14' E 024°52'1222.0
2019-Jul-14 12:59N 37°20' E 025°04'1020.9
2019-Jul-14 12:30N 37°28' E 025°12'510.8
2019-Jul-14 12:00N 37°28' E 025°19'0 0.0
2019-Jul-14 11:26N 37°28' E 025°19'0 0.0
2019-Jul-14 10:59N 37°28' E 025°19'0 0.0
2019-Jul-14 10:23N 37°28' E 025°19'0 0.0
2019-Jul-14 09:59N 37°28' E 025°19'0 0.0
2019-Jul-14 09:20N 37°28' E 025°19'0 0.0
2019-Jul-14 08:56N 37°28' E 025°19'0 0.0
2019-Jul-14 08:29N 37°28' E 025°19'0 0.0
2019-Jul-14 07:59N 37°28' E 025°19'0 0.0
2019-Jul-14 07:05N 37°28' E 025°19'0 0.0
2019-Jul-14 06:59N 37°28' E 025°19'0 0.0
2019-Jul-14 06:26N 37°28' E 025°19'0 0.0
2019-Jul-14 05:59N 37°28' E 025°19'0 0.0
2019-Jul-14 05:29N 37°28' E 025°19'0 0.0
2019-Jul-14 04:59N 37°28' E 025°19'0 0.0
2019-Jul-14 04:29N 37°28' E 025°19'0 0.0
2019-Jul-14 03:59N 37°28' E 025°19'0 0.1
2019-Jul-14 03:31N 37°28' E 025°19'3 5.1
2019-Jul-14 03:00N 37°30' E 025°17'612.5
2019-Jul-14 02:30N 37°34' E 025°23'612.5
2019-Jul-14 02:00N 37°33' E 025°31'1613.7
2019-Jul-14 00:49N 37°25' E 025°48'413.6
2019-Jul-14 00:30N 37°23' E 025°53'10 0.4
2019-Jul-12 22:37N 37°13' E 025°50'221.1
2019-Jul-12 22:30N 37°14' E 025°48'1221.2
2019-Jul-12 21:57N 37°15' E 025°33'920.6
2019-Jul-12 21:30N 37°15' E 025°22'1020.4
2019-Jul-12 21:00N 37°16' E 025°09'1020.5
2019-Jul-12 20:30N 37°15' E 024°56'4119.7
2019-Jul-12 18:27N 37°25' E 024°07'1521.4
2019-Jul-12 17:46N 37°35' E 023°52'621.4
2019-Jul-12 17:30N 37°38' E 023°46'1020.6
2019-Jul-12 17:00N 37°46' E 023°38'1019.2
2019-Jul-12 16:30N 37°55' E 023°36'2 3.7
2019-Jul-12 16:00N 37°56' E 023°38'0 0.0
2019-Jul-12 15:30N 37°56' E 023°38'0 0.0
2019-Jul-12 15:00N 37°56' E 023°38'0 0.0
2019-Jul-12 14:30N 37°56' E 023°38'0 0.0
2019-Jul-12 14:00N 37°56' E 023°38'0 0.0
2019-Jul-12 13:30N 37°56' E 023°38'0 0.0
2019-Jul-12 13:00N 37°56' E 023°38'0 0.0
2019-Jul-12 12:30N 37°56' E 023°38'0 0.0
2019-Jul-12 12:00N 37°56' E 023°38'0 0.0
2019-Jul-12 11:30N 37°56' E 023°38'0 0.0
2019-Jul-12 11:00N 37°56' E 023°38'0 0.0
2019-Jul-12 10:30N 37°56' E 023°38'0 0.0
2019-Jul-12 10:00N 37°56' E 023°38'0 0.0
2019-Jul-12 09:30N 37°56' E 023°38'0 0.0
2019-Jul-12 09:00N 37°56' E 023°38'0 0.0
2019-Jul-12 08:31N 37°56' E 023°38'0 0.0
2019-Jul-12 08:00N 37°56' E 023°38'0 0.0
2019-Jul-12 07:30N 37°56' E 023°38'0 0.0
2019-Jul-12 07:00N 37°56' E 023°38'3197.9
2019-Jul-12 07:00N 37°54' E 023°36'3 5.9 050 / 61013.0 5.4 25.0
2019-Jul-12 06:31N 37°56' E 023°38'0 0.0
2019-Jul-12 06:01N 37°56' E 023°38'0 0.0
2019-Jul-12 05:30N 37°56' E 023°38'0 0.0
2019-Jul-12 05:00N 37°56' E 023°38'0 0.0
2019-Jul-12 04:30N 37°56' E 023°38'0 0.0
2019-Jul-12 04:00N 37°56' E 023°38'0 0.1
2019-Jul-12 03:31N 37°56' E 023°38'2 3.0
2019-Jul-12 03:00N 37°55' E 023°37'1313.1
2019-Jul-12 02:00N 37°44' E 023°43'1122.7
2019-Jul-12 01:30N 37°32' E 023°45'1223.4
2019-Jul-12 01:00N 37°22' E 023°51'  
Track history (hours):
 
Tides and Currents Weather Stations Pressure Air Temp Water Temp Dewpoint Dewpoint Depression Visibility Wind Speed Wind Dir Waves Ship Positions

Norwegian Star

Operator: Norwegian Cruise Line

Last reported at 2019-Jul-21 20:45 UTC. Time now 2019-Jul-22 14:47 UTC.
Position N 41°19' E 018°53'.

Type: Passenger vessel. MMSI: 311082000.

Date/timePositionNaut miles runAvg speedWind from/ knotsBaromVisibWave heightAir tempDewpointWater temp
2019-Jul-21 20:45N 41°19' E 018°53'146 5.4
2019-Jul-20 17:53N 42°56' E 016°27'513.0
2019-Jul-20 17:30N 43°00' E 016°24'713.3
2019-Jul-20 17:00N 43°06' E 016°19'612.6
2019-Jul-20 16:30N 43°12' E 016°16'713.7
2019-Jul-20 16:00N 43°17' E 016°22'13 1.6
2019-Jul-20 08:00N 43°30' E 016°24'39 6.7 170 / 61019.0 5.4 28.0
2019-Jul-20 02:11N 43°34' E 015°31'317.6
2019-Jul-20 02:00N 43°35' E 015°27'917.6
2019-Jul-20 01:29N 43°40' E 015°15'817.7
2019-Jul-20 01:00N 43°44' E 015°05'917.6
2019-Jul-20 00:31N 43°48' E 014°54'917.7
2019-Jul-20 00:00N 43°52' E 014°43'1117.6
2019-Jul-19 23:21N 43°57' E 014°29'617.6
2019-Jul-19 23:01N 43°59' E 014°21'1117.7
2019-Jul-19 22:24N 44°04' E 014°07'717.1
2019-Jul-19 22:00N 44°08' E 014°00'1017.3
2019-Jul-19 21:27N 44°16' E 013°53'817.4
2019-Jul-19 21:00N 44°22' E 013°47'917.6
2019-Jul-19 20:30N 44°30' E 013°40'917.4
2019-Jul-19 20:00N 44°37' E 013°33'917.2
2019-Jul-19 19:30N 44°44' E 013°27'917.3
2019-Jul-19 19:00N 44°51' E 013°20'817.0
2019-Jul-19 18:31N 44°58' E 013°12'816.2
2019-Jul-19 18:00N 45°03' E 013°04'816.7
2019-Jul-19 17:31N 45°09' E 012°56'816.6
2019-Jul-19 17:01N 45°15' E 012°47'917.0
2019-Jul-19 16:31N 45°20' E 012°37'815.1
2019-Jul-19 16:00N 45°24' E 012°28'4 8.4
2019-Jul-19 15:30N 45°26' E 012°23'2 3.9
2019-Jul-19 15:00N 45°26' E 012°20'1 2.5
2019-Jul-19 14:30N 45°26' E 012°19'0 0.2
2019-Jul-19 13:59N 45°26' E 012°19'0 0.0
2019-Jul-19 13:29N 45°26' E 012°19'0 0.0
2019-Jul-19 12:59N 45°26' E 012°19'0 0.0
2019-Jul-19 12:29N 45°26' E 012°19'0 0.0
2019-Jul-19 11:59N 45°26' E 012°19'0 0.0
2019-Jul-19 11:29N 45°26' E 012°19'0 0.0
2019-Jul-19 10:59N 45°26' E 012°19'0 0.0
2019-Jul-19 10:29N 45°26' E 012°19'0 0.0
2019-Jul-19 09:59N 45°26' E 012°19'0 0.0
2019-Jul-19 09:29N 45°26' E 012°19'0 0.0
2019-Jul-19 08:59N 45°26' E 012°19'0 0.0
2019-Jul-19 08:29N 45°26' E 012°19'0 0.0
2019-Jul-19 07:59N 45°26' E 012°19'0 0.0
2019-Jul-19 07:29N 45°26' E 012°19'0 0.0
2019-Jul-19 06:59N 45°26' E 012°19'0 0.0
2019-Jul-19 06:29N 45°26' E 012°19'0 0.0
2019-Jul-19 05:59N 45°26' E 012°19'0 0.0
2019-Jul-19 05:29N 45°26' E 012°19'0 0.0
2019-Jul-19 04:59N 45°26' E 012°19'0 0.0
2019-Jul-19 04:29N 45°26' E 012°19'0 0.0
2019-Jul-19 03:59N 45°26' E 012°19'0 0.0
2019-Jul-19 03:29N 45°26' E 012°19'0 0.0
2019-Jul-19 02:59N 45°26' E 012°19'0 0.0
2019-Jul-19 02:29N 45°26' E 012°19'0 0.0
2019-Jul-19 01:59N 45°26' E 012°19'0 0.0
2019-Jul-19 01:29N 45°26' E 012°19'0 0.0
2019-Jul-19 00:59N 45°26' E 012°19'0 0.0
2019-Jul-19 00:29N 45°26' E 012°19'0 0.0
2019-Jul-18 23:59N 45°26' E 012°19'0 0.0
2019-Jul-18 23:29N 45°26' E 012°19'0 0.0
2019-Jul-18 22:59N 45°26' E 012°19'0 0.0
2019-Jul-18 22:29N 45°26' E 012°19'0 0.0
2019-Jul-18 21:59N 45°26' E 012°19'0 0.0
2019-Jul-18 21:29N 45°26' E 012°19'0 0.0
2019-Jul-18 20:59N 45°26' E 012°19'0 0.0
2019-Jul-18 20:29N 45°26' E 012°19'0 0.0
2019-Jul-18 19:59N 45°26' E 012°19'0 0.0
2019-Jul-18 19:29N 45°26' E 012°19'0 0.0
2019-Jul-18 18:59N 45°26' E 012°19'0 0.0
2019-Jul-18 18:29N 45°26' E 012°19'0 0.0
2019-Jul-18 17:59N 45°26' E 012°19'0 0.0
2019-Jul-18 17:29N 45°26' E 012°19'0 0.0
2019-Jul-18 16:59N 45°26' E 012°19'0 0.0
2019-Jul-18 16:29N 45°26' E 012°19'0 0.0
2019-Jul-18 15:59N 45°26' E 012°19'0 0.0
2019-Jul-18 15:29N 45°26' E 012°19'0 0.0
2019-Jul-18 14:59N 45°26' E 012°19'0 0.0
2019-Jul-18 14:29N 45°26' E 012°19'0 0.0
2019-Jul-18 13:59N 45°26' E 012°19'0 0.0
2019-Jul-18 13:29N 45°26' E 012°19'0 0.0
2019-Jul-18 12:59N 45°26' E 012°19'0 0.0
2019-Jul-18 12:29N 45°26' E 012°19'0 0.0
2019-Jul-18 11:59N 45°26' E 012°19'0 0.0
2019-Jul-18 11:26N 45°26' E 012°19'0 0.0
2019-Jul-18 10:59N 45°26' E 012°19'0 0.0
2019-Jul-18 10:29N 45°26' E 012°19'0 0.0
2019-Jul-18 09:59N 45°26' E 012°19'0 0.0
2019-Jul-18 09:29N 45°26' E 012°19'2 4.8
2019-Jul-18 09:00N 45°24' E 012°18'2247.3 020 / 101013.0 5.4 22.0
2019-Jul-18 08:59N 45°26' E 012°19'0 0.0
2019-Jul-18 08:29N 45°26' E 012°19'0 0.0
2019-Jul-18 07:59N 45°26' E 012°19'0 0.0
2019-Jul-18 07:29N 45°26' E 012°19'0 0.0
2019-Jul-18 06:59N 45°26' E 012°19'0 0.0
2019-Jul-18 06:29N 45°26' E 012°19'0 0.0
2019-Jul-18 05:59N 45°26' E 012°19'0 0.0
2019-Jul-18 05:29N 45°26' E 012°19'0 0.0
2019-Jul-18 04:59N 45°26' E 012°19'0 0.0
2019-Jul-18 04:29N 45°26' E 012°19'0 0.0
2019-Jul-18 03:59N 45°26' E 012°19'0 0.0
2019-Jul-18 03:29N 45°26' E 012°19'0 0.0
2019-Jul-18 02:59N 45°26' E 012°19'0 0.0
2019-Jul-18 02:29N 45°26' E 012°19'0 0.0
2019-Jul-18 01:59N 45°26' E 012°19'0 0.0
2019-Jul-18 01:26N 45°26' E 012°19'0 0.0
2019-Jul-18 00:59N 45°26' E 012°19'0 0.0
2019-Jul-18 00:29N 45°26' E 012°19'0 0.0
2019-Jul-17 23:59N 45°26' E 012°19'0 0.0
2019-Jul-17 23:29N 45°26' E 012°19'0 0.0
2019-Jul-17 22:59N 45°26' E 012°19'0 0.0
2019-Jul-17 22:29N 45°26' E 012°19'0 0.0
2019-Jul-17 21:59N 45°26' E 012°19'0 0.0
2019-Jul-17 21:29N 45°26' E 012°19'0 0.0
2019-Jul-17 20:59N 45°26' E 012°19'0 0.0
2019-Jul-17 20:29N 45°26' E 012°19'0 0.0
2019-Jul-17 19:59N 45°26' E 012°19'0 0.0
2019-Jul-17 19:29N 45°26' E 012°19'0 0.0
2019-Jul-17 18:59N 45°26' E 012°19'0 0.0
2019-Jul-17 18:29N 45°26' E 012°19'0 0.0
2019-Jul-17 17:59N 45°26' E 012°19'0 0.0
2019-Jul-17 17:29N 45°26' E 012°19'0 0.0
2019-Jul-17 16:59N 45°26' E 012°19'0 0.0
2019-Jul-17 16:29N 45°26' E 012°19'0 0.0
2019-Jul-17 15:59N 45°26' E 012°19'0 0.0
2019-Jul-17 15:29N 45°26' E 012°19'0 0.0
2019-Jul-17 14:59N 45°26' E 012°19'0 0.0
2019-Jul-17 14:29N 45°26' E 012°19'0 0.0
2019-Jul-17 13:59N 45°26' E 012°19'0 0.0
2019-Jul-17 13:29N 45°26' E 012°19'0 0.0
2019-Jul-17 12:59N 45°26' E 012°19'0 0.0
2019-Jul-17 12:29N 45°26' E 012°19'0 0.0
2019-Jul-17 11:56N 45°26' E 012°19'0 0.0
2019-Jul-17 11:29N 45°26' E 012°19'0 0.9
2019-Jul-17 11:01N 45°26' E 012°18'2 4.3
2019-Jul-17 10:31N 45°26' E 012°21'3 5.1
2019-Jul-17 10:01N 45°26' E 012°25'3 5.8
2019-Jul-17 09:31N 45°24' E 012°29'4 7.2
2019-Jul-17 09:01N 45°22' E 012°33'611.8
2019-Jul-17 08:31N 45°19' E 012°40'816.9
2019-Jul-17 08:01N 45°14' E 012°49'816.9
2019-Jul-17 07:31N 45°08' E 012°58'816.8
2019-Jul-17 07:01N 45°03' E 013°07'817.0
2019-Jul-17 06:31N 44°59' E 013°18'917.4
2019-Jul-17 06:01N 44°52' E 013°25'918.3
2019-Jul-17 05:31N 44°44' E 013°32'918.7
2019-Jul-17 05:01N 44°36' E 013°39'2138.9
2019-Jul-17 05:00N 44°36' E 013°36'1021.2 010 / 3 25.0
2019-Jul-17 04:31N 44°29' E 013°46'1020.3
2019-Jul-17 04:01N 44°20' E 013°54'1122.5
2019-Jul-17 03:30N 44°11' E 014°03'1122.5
2019-Jul-17 03:01N 44°02' E 014°12'1122.4
2019-Jul-17 02:31N 43°53' E 014°21'1122.5
2019-Jul-17 02:01N 43°44' E 014°31'1122.4
2019-Jul-17 01:31N 43°36' E 014°41'  
2019-Jul-14 13:37N 37°12' E 024°49'323.9
2019-Jul-14 13:31N 37°14' E 024°52'1222.0
2019-Jul-14 12:59N 37°20' E 025°04'1020.9
2019-Jul-14 12:30N 37°28' E 025°12'510.8
2019-Jul-14 12:00N 37°28' E 025°19'0 0.0
2019-Jul-14 11:26N 37°28' E 025°19'0 0.0
2019-Jul-14 10:59N 37°28' E 025°19'0 0.0
2019-Jul-14 10:23N 37°28' E 025°19'0 0.0
2019-Jul-14 09:59N 37°28' E 025°19'0 0.0
2019-Jul-14 09:20N 37°28' E 025°19'0 0.0
2019-Jul-14 08:56N 37°28' E 025°19'0 0.0
2019-Jul-14 08:29N 37°28' E 025°19'0 0.0
2019-Jul-14 07:59N 37°28' E 025°19'0 0.0
2019-Jul-14 07:05N 37°28' E 025°19'0 0.0
2019-Jul-14 06:59N 37°28' E 025°19'0 0.0
2019-Jul-14 06:26N 37°28' E 025°19'0 0.0
2019-Jul-14 05:59N 37°28' E 025°19'0 0.0
2019-Jul-14 05:29N 37°28' E 025°19'0 0.0
2019-Jul-14 04:59N 37°28' E 025°19'0 0.0
2019-Jul-14 04:29N 37°28' E 025°19'0 0.0
2019-Jul-14 03:59N 37°28' E 025°19'0 0.1
2019-Jul-14 03:31N 37°28' E 025°19'3 5.1
2019-Jul-14 03:00N 37°30' E 025°17'612.5
2019-Jul-14 02:30N 37°34' E 025°23'612.5
2019-Jul-14 02:00N 37°33' E 025°31'1613.7
2019-Jul-14 00:49N 37°25' E 025°48'413.6
2019-Jul-14 00:30N 37°23' E 025°53'10 0.4
2019-Jul-12 22:37N 37°13' E 025°50'221.1
2019-Jul-12 22:30N 37°14' E 025°48'1221.2
2019-Jul-12 21:57N 37°15' E 025°33'920.6
2019-Jul-12 21:30N 37°15' E 025°22'1020.4
2019-Jul-12 21:00N 37°16' E 025°09'1020.5
2019-Jul-12 20:30N 37°15' E 024°56'4119.7
2019-Jul-12 18:27N 37°25' E 024°07'1521.4
2019-Jul-12 17:46N 37°35' E 023°52'621.4
2019-Jul-12 17:30N 37°38' E 023°46'1020.6
2019-Jul-12 17:00N 37°46' E 023°38'1019.2
2019-Jul-12 16:30N 37°55' E 023°36'2 3.7
2019-Jul-12 16:00N 37°56' E 023°38'0 0.0
2019-Jul-12 15:30N 37°56' E 023°38'0 0.0
2019-Jul-12 15:00N 37°56' E 023°38'0 0.0
2019-Jul-12 14:30N 37°56' E 023°38'0 0.0
2019-Jul-12 14:00N 37°56' E 023°38'0 0.0
2019-Jul-12 13:30N 37°56' E 023°38'0 0.0
2019-Jul-12 13:00N 37°56' E 023°38'0 0.0
2019-Jul-12 12:30N 37°56' E 023°38'0 0.0
2019-Jul-12 12:00N 37°56' E 023°38'0 0.0
2019-Jul-12 11:30N 37°56' E 023°38'0 0.0
2019-Jul-12 11:00N 37°56' E 023°38'0 0.0
2019-Jul-12 10:30N 37°56' E 023°38'0 0.0
2019-Jul-12 10:00N 37°56' E 023°38'0 0.0
2019-Jul-12 09:30N 37°56' E 023°38'0 0.0
2019-Jul-12 09:00N 37°56' E 023°38'0 0.0
2019-Jul-12 08:31N 37°56' E 023°38'0 0.0
2019-Jul-12 08:00N 37°56' E 023°38'0 0.0
2019-Jul-12 07:30N 37°56' E 023°38'0 0.0
2019-Jul-12 07:00N 37°56' E 023°38'3197.9
2019-Jul-12 07:00N 37°54' E 023°36'3 5.9 050 / 61013.0 5.4 25.0
2019-Jul-12 06:31N 37°56' E 023°38'0 0.0
2019-Jul-12 06:01N 37°56' E 023°38'0 0.0
2019-Jul-12 05:30N 37°56' E 023°38'0 0.0
2019-Jul-12 05:00N 37°56' E 023°38'0 0.0
2019-Jul-12 04:30N 37°56' E 023°38'0 0.0
2019-Jul-12 04:00N 37°56' E 023°38'0 0.1
2019-Jul-12 03:31N 37°56' E 023°38'2 3.0
2019-Jul-12 03:00N 37°55' E 023°37'1313.1
2019-Jul-12 02:00N 37°44' E 023°43'1122.7
2019-Jul-12 01:30N 37°32' E 023°45'1223.4
2019-Jul-12 01:00N 37°22' E 023°51'  

Dump ship's entire track history